createdAt,value
2023-02-25T00:02:08.610Z,3.60
2023-02-25T00:04:37.612Z,3.50
2023-02-25T00:07:06.234Z,3.50
2023-02-25T00:09:36.560Z,3.50
2023-02-25T00:12:05.529Z,3.50
2023-02-25T00:14:34.402Z,3.50
2023-02-25T00:17:02.987Z,3.50
2023-02-25T00:19:31.769Z,3.50
2023-02-25T00:22:00.773Z,3.50
2023-02-25T00:24:32.157Z,3.50
2023-02-25T00:27:05.220Z,3.50
2023-02-25T00:29:34.020Z,3.50
2023-02-25T00:32:04.289Z,3.50
2023-02-25T00:34:33.036Z,3.50
2023-02-25T00:37:01.721Z,3.50
2023-02-25T00:39:42.657Z,3.50
2023-02-25T00:42:14.864Z,3.50
2023-02-25T00:44:45.050Z,3.50
2023-02-25T00:47:13.927Z,3.50
2023-02-25T00:49:43.034Z,3.50
2023-02-25T00:52:11.821Z,3.50
2023-02-25T00:54:40.768Z,3.50
2023-02-25T00:57:09.783Z,3.50
2023-02-25T00:59:39.886Z,3.50
2023-02-25T01:02:08.571Z,3.50
2023-02-25T01:04:37.238Z,3.50
2023-02-25T01:07:06.097Z,3.60
2023-02-25T01:09:34.791Z,3.50
2023-02-25T01:12:04.226Z,3.50
2023-02-25T01:14:33.259Z,3.50
2023-02-25T01:17:03.519Z,3.40
2023-02-25T01:19:32.304Z,3.50
2023-02-25T01:22:01.129Z,3.50
2023-02-25T01:24:31.918Z,3.50
2023-02-25T01:27:02.343Z,3.40
2023-02-25T01:29:33.582Z,3.40
2023-02-25T01:32:05.345Z,3.50
2023-02-25T01:34:34.639Z,3.50
2023-02-25T01:37:05.662Z,3.40
2023-02-25T01:39:34.695Z,3.40
2023-02-25T01:42:06.321Z,3.40
2023-02-25T01:44:36.275Z,3.40
2023-02-25T01:47:08.054Z,3.40
2023-02-25T01:49:41.912Z,3.40
2023-02-25T01:52:13.672Z,3.30
2023-02-25T01:54:45.289Z,3.30
2023-02-25T01:57:16.647Z,3.20
2023-02-25T01:59:46.544Z,3.20
2023-02-25T02:02:21.035Z,3.10
2023-02-25T02:04:51.609Z,3.10
2023-02-25T02:07:24.951Z,3.00
2023-02-25T02:09:57.367Z,3.00
2023-02-25T02:12:28.876Z,3.00
2023-02-25T02:15:00.292Z,3.00
2023-02-25T02:17:36.287Z,3.00
2023-02-25T02:20:16.519Z,3.00
2023-02-25T02:23:07.019Z,3.10
2023-02-25T02:25:53.137Z,3.10
2023-02-25T02:28:49.461Z,3.20
2023-02-25T02:31:44.102Z,3.20
2023-02-25T02:34:27.457Z,3.20
2023-02-25T02:37:06.025Z,3.20
2023-02-25T02:39:47.294Z,3.30
2023-02-25T02:42:27.720Z,3.30
2023-02-25T02:45:02.304Z,3.30
2023-02-25T02:47:36.475Z,3.30
2023-02-25T02:50:08.986Z,3.40
2023-02-25T02:52:43.223Z,3.40
2023-02-25T02:55:22.398Z,3.40
2023-02-25T02:57:57.135Z,3.40
2023-02-25T03:00:29.260Z,3.40
2023-02-25T03:03:05.819Z,3.40
2023-02-25T03:05:36.734Z,3.40
2023-02-25T03:08:11.575Z,3.40
2023-02-25T03:10:40.443Z,3.40
2023-02-25T03:13:09.394Z,3.40
2023-02-25T03:15:41.436Z,3.50
2023-02-25T03:18:19.402Z,3.50
2023-02-25T03:20:50.566Z,3.50
2023-02-25T03:23:22.146Z,3.50
2023-02-25T03:25:56.376Z,3.50
2023-02-25T03:28:31.886Z,3.50
2023-02-25T03:31:07.473Z,3.50
2023-02-25T03:33:47.999Z,3.50
2023-02-25T03:36:21.493Z,3.60
2023-02-25T03:38:53.803Z,3.60
2023-02-25T03:41:26.578Z,3.60
2023-02-25T03:43:58.349Z,3.60
2023-02-25T03:46:28.582Z,3.60
2023-02-25T03:49:01.169Z,3.60
2023-02-25T03:51:34.470Z,3.50
2023-02-25T03:54:03.269Z,3.50
2023-02-25T03:56:43.780Z,3.50
2023-02-25T03:59:13.012Z,3.50
2023-02-25T04:01:43.880Z,3.50
2023-02-25T04:04:14.090Z,3.50
2023-02-25T04:06:43.004Z,3.50
2023-02-25T04:09:11.846Z,3.50
2023-02-25T04:11:40.625Z,3.50
2023-02-25T04:14:09.737Z,3.50
2023-02-25T04:16:38.654Z,3.50
2023-02-25T04:19:07.608Z,3.50
2023-02-25T04:21:40.340Z,3.50
2023-02-25T04:24:09.641Z,3.50
2023-02-25T04:26:38.533Z,3.40
2023-02-25T04:29:07.527Z,3.40
2023-02-25T04:31:36.551Z,3.50
2023-02-25T04:34:05.448Z,3.40
2023-02-25T04:36:36.925Z,3.40
2023-02-25T04:39:07.509Z,3.50
2023-02-25T04:41:37.826Z,3.50
2023-02-25T04:44:08.248Z,3.50
2023-02-25T04:46:39.535Z,3.50
2023-02-25T04:49:09.965Z,3.50
2023-02-25T04:51:40.230Z,3.50
2023-02-25T04:54:10.694Z,3.50
2023-02-25T04:56:40.841Z,3.50
2023-02-25T04:59:11.708Z,3.50
2023-02-25T05:01:41.551Z,3.50
2023-02-25T05:04:10.773Z,3.50
2023-02-25T05:06:40.727Z,3.50
2023-02-25T05:09:11.520Z,3.50
2023-02-25T05:11:40.640Z,3.60
2023-02-25T05:14:09.613Z,3.60
2023-02-25T05:16:39.181Z,3.60
2023-02-25T05:19:08.349Z,3.60
2023-02-25T05:21:37.427Z,3.60
2023-02-25T05:24:07.061Z,3.60
2023-02-25T05:26:37.604Z,3.50
2023-02-25T05:29:07.538Z,3.60
2023-02-25T05:31:37.136Z,3.50
2023-02-25T05:34:05.838Z,3.50
2023-02-25T05:36:34.432Z,3.50
2023-02-25T05:39:03.312Z,3.50
2023-02-25T05:41:32.622Z,3.50
2023-02-25T05:44:02.986Z,3.50
2023-02-25T05:46:31.842Z,3.50
2023-02-25T05:49:00.589Z,3.50
2023-02-25T05:51:29.666Z,3.50
2023-02-25T05:53:58.942Z,3.50
2023-02-25T05:56:31.684Z,3.50
2023-02-25T05:59:02.441Z,3.40
2023-02-25T06:01:31.972Z,3.40
2023-02-25T06:04:01.344Z,3.40
2023-02-25T06:06:32.141Z,3.40
2023-02-25T06:09:00.980Z,3.40
2023-02-25T06:11:31.464Z,3.40
2023-02-25T06:14:02.604Z,3.50
2023-02-25T06:16:32.941Z,3.50
2023-02-25T06:19:02.733Z,3.50
2023-02-25T06:21:32.214Z,3.50
2023-02-25T06:24:01.320Z,3.50
2023-02-25T06:26:35.551Z,3.50
2023-02-25T06:29:05.799Z,3.50
2023-02-25T06:31:35.149Z,3.50
2023-02-25T06:34:03.918Z,3.50
2023-02-25T06:36:34.356Z,3.50
2023-02-25T06:39:03.011Z,3.50
2023-02-25T06:41:31.902Z,3.60
2023-02-25T06:44:00.713Z,3.60
2023-02-25T06:46:30.896Z,3.60
2023-02-25T06:48:59.957Z,3.60
2023-02-25T06:51:28.982Z,3.60
2023-02-25T06:53:57.955Z,3.60
2023-02-25T06:56:26.984Z,3.70
2023-02-25T06:58:56.964Z,3.70
2023-02-25T07:01:25.938Z,3.70
2023-02-25T07:03:56.246Z,3.70
2023-02-25T07:06:25.110Z,3.70
2023-02-25T07:08:54.044Z,3.70
2023-02-25T07:11:35.025Z,3.80
2023-02-25T07:14:04.972Z,3.80
2023-02-25T07:16:34.509Z,3.80
2023-02-25T07:19:04.816Z,3.90
2023-02-25T07:21:33.937Z,3.90
2023-02-25T07:24:02.703Z,3.90
2023-02-25T07:26:31.475Z,4.00
2023-02-25T07:29:01.026Z,4.00
2023-02-25T07:31:31.086Z,4.00
2023-02-25T07:34:03.613Z,4.10
2023-02-25T07:36:35.424Z,4.20
2023-02-25T07:39:06.084Z,4.20
2023-02-25T07:41:34.856Z,4.30
2023-02-25T07:44:05.123Z,4.30
2023-02-25T07:46:34.808Z,4.30
2023-02-25T07:49:03.891Z,4.40
2023-02-25T07:51:34.288Z,4.50
2023-02-25T07:54:28.738Z,4.50
2023-02-25T07:56:59.419Z,4.50
2023-02-25T07:59:28.987Z,4.50
2023-02-25T08:01:57.703Z,4.50
2023-02-25T08:04:26.350Z,4.60
2023-02-25T08:06:56.567Z,4.70
2023-02-25T08:09:25.449Z,4.70
2023-02-25T08:11:59.013Z,4.80
2023-02-25T08:14:29.781Z,4.90
2023-02-25T08:16:59.091Z,5.10
2023-02-25T08:19:27.736Z,5.20
2023-02-25T08:21:57.913Z,5.20
2023-02-25T08:24:26.708Z,5.20
2023-02-25T08:26:55.757Z,5.20
2023-02-25T08:29:24.334Z,5.50
2023-02-25T08:31:56.681Z,5.80
2023-02-25T08:34:26.076Z,5.90
2023-02-25T08:36:54.759Z,5.90
2023-02-25T08:39:24.979Z,5.90
2023-02-25T08:41:55.152Z,5.90
2023-02-25T08:44:23.972Z,6.00
2023-02-25T08:46:58.466Z,6.10
2023-02-25T08:49:27.205Z,6.10
2023-02-25T08:51:55.841Z,6.10
2023-02-25T08:54:26.132Z,6.10
2023-02-25T08:56:55.685Z,6.10
2023-02-25T08:59:24.397Z,6.10
2023-02-25T09:01:54.471Z,6.20
2023-02-25T09:04:25.300Z,6.20
2023-02-25T09:06:55.250Z,6.20
2023-02-25T09:09:25.852Z,6.20
2023-02-25T09:11:55.044Z,6.20
2023-02-25T09:14:24.100Z,6.20
2023-02-25T09:16:53.080Z,6.20
2023-02-25T09:19:21.947Z,6.20
2023-02-25T09:21:50.638Z,6.20
2023-02-25T09:24:19.808Z,6.30
2023-02-25T09:26:49.902Z,6.40
2023-02-25T09:29:19.071Z,6.40
2023-02-25T09:31:47.873Z,6.40
2023-02-25T09:34:16.748Z,6.30
2023-02-25T09:36:45.495Z,6.10
2023-02-25T09:39:14.605Z,5.90
2023-02-25T09:41:55.622Z,5.80
2023-02-25T09:44:30.129Z,5.70
2023-02-25T09:47:04.846Z,5.70
2023-02-25T09:49:37.883Z,5.60
2023-02-25T09:52:16.998Z,5.50
2023-02-25T09:54:47.360Z,5.40
2023-02-25T09:57:22.677Z,5.40
2023-02-25T09:59:53.728Z,5.50
2023-02-25T10:02:31.891Z,5.60
2023-02-25T10:05:14.954Z,5.60
2023-02-25T10:07:59.226Z,5.60
2023-02-25T10:10:35.256Z,5.70
2023-02-25T10:13:16.694Z,5.60
2023-02-25T10:15:56.665Z,5.60
2023-02-25T10:18:43.208Z,5.60
2023-02-25T10:21:25.386Z,5.70
2023-02-25T10:24:15.263Z,5.90
2023-02-25T10:26:48.982Z,6.00
2023-02-25T10:29:27.154Z,6.00
2023-02-25T10:31:59.104Z,6.10
2023-02-25T10:34:30.960Z,6.20
2023-02-25T10:37:01.302Z,6.30
2023-02-25T10:39:31.407Z,6.50
2023-02-25T10:42:00.300Z,6.60
2023-02-25T10:44:30.478Z,6.80
2023-02-25T10:47:04.089Z,6.90
2023-02-25T10:49:38.233Z,7.00
2023-02-25T10:52:10.369Z,7.20
2023-02-25T10:54:48.101Z,7.40
2023-02-25T10:57:19.048Z,7.50
2023-02-25T10:59:49.679Z,7.40
2023-02-25T11:02:23.852Z,7.40
2023-02-25T11:04:53.639Z,7.40
2023-02-25T11:07:32.941Z,7.50
2023-02-25T11:10:14.728Z,7.70
2023-02-25T11:12:45.749Z,7.80
2023-02-25T11:15:44.068Z,7.70
2023-02-25T11:18:21.839Z,7.60
2023-02-25T11:20:54.836Z,7.30
2023-02-25T11:23:28.101Z,7.00
2023-02-25T11:25:57.650Z,6.90
2023-02-25T11:28:32.984Z,6.80
2023-02-25T11:31:14.634Z,6.80
2023-02-25T11:33:46.978Z,6.50
2023-02-25T11:36:23.716Z,6.20
2023-02-25T11:39:06.894Z,6.00
2023-02-25T11:41:35.570Z,5.70
2023-02-25T11:44:37.047Z,5.80
2023-02-25T11:47:17.936Z,5.90
2023-02-25T11:50:05.179Z,6.20
2023-02-25T11:52:41.800Z,6.40
2023-02-25T11:55:21.958Z,6.70
2023-02-25T11:58:03.886Z,7.00
2023-02-25T12:00:38.933Z,7.20
2023-02-25T12:03:41.116Z,7.30
2023-02-25T12:06:23.561Z,7.30
2023-02-25T12:09:15.687Z,7.30
2023-02-25T12:12:07.642Z,7.30
2023-02-25T12:15:17.589Z,7.40
2023-02-25T12:18:16.549Z,7.70
2023-02-25T12:21:22.891Z,7.90
2023-02-25T12:24:24.885Z,7.70
2023-02-25T12:27:29.520Z,7.40
2023-02-25T12:30:24.683Z,6.50
2023-02-25T12:33:07.294Z,5.70
2023-02-25T12:35:57.033Z,5.20
2023-02-25T12:39:16.993Z,4.80
2023-02-25T12:41:50.037Z,4.60
2023-02-25T12:44:47.840Z,4.60
2023-02-25T12:47:25.740Z,4.60
2023-02-25T12:50:16.942Z,4.80
2023-02-25T12:53:05.692Z,5.20
2023-02-25T12:55:54.170Z,5.70
2023-02-25T12:58:46.562Z,6.30
2023-02-25T13:01:39.267Z,6.70
2023-02-25T13:04:46.775Z,6.50
2023-02-25T13:07:38.019Z,5.40
2023-02-25T13:10:35.752Z,4.70
2023-02-25T13:13:26.415Z,4.10
2023-02-25T13:16:05.890Z,3.60
2023-02-25T13:18:48.560Z,3.40
2023-02-25T13:21:29.728Z,3.40
2023-02-25T13:24:19.270Z,3.60
2023-02-25T13:27:06.777Z,3.70
2023-02-25T13:29:58.962Z,3.80
2023-02-25T13:32:34.168Z,3.90
2023-02-25T13:35:27.734Z,3.90
2023-02-25T13:38:09.891Z,3.90
2023-02-25T13:40:52.284Z,3.90
2023-02-25T13:43:42.222Z,4.00
2023-02-25T13:46:29.146Z,4.00
2023-02-25T13:49:11.003Z,4.10
2023-02-25T13:52:07.550Z,4.20
2023-02-25T13:54:55.367Z,4.10
2023-02-25T13:57:41.573Z,4.10
2023-02-25T14:00:48.064Z,4.10
2023-02-25T14:03:49.436Z,4.00
2023-02-25T14:06:35.792Z,4.00
2023-02-25T14:09:23.076Z,4.00
2023-02-25T14:12:11.528Z,4.10
2023-02-25T14:15:04.208Z,4.20
2023-02-25T14:17:49.953Z,4.30
2023-02-25T14:20:29.842Z,4.50
2023-02-25T14:23:04.520Z,4.60
2023-02-25T14:25:46.866Z,4.70
2023-02-25T14:28:23.755Z,4.80
2023-02-25T14:31:03.401Z,4.70
2023-02-25T14:33:50.864Z,4.60
2023-02-25T14:36:40.781Z,4.60
2023-02-25T14:39:27.717Z,4.50
2023-02-25T14:42:09.482Z,4.50
2023-02-25T14:44:44.446Z,4.60
2023-02-25T14:47:19.192Z,4.90
2023-02-25T14:49:59.341Z,5.00
2023-02-25T14:52:46.772Z,4.90
2023-02-25T14:55:46.348Z,4.80
2023-02-25T14:58:34.765Z,4.70
2023-02-25T15:01:42.903Z,4.60
2023-02-25T15:04:32.868Z,4.60
2023-02-25T15:07:21.888Z,4.60
2023-02-25T15:10:30.366Z,4.60
2023-02-25T15:13:37.833Z,4.60
2023-02-25T15:17:00.821Z,4.70
2023-02-25T15:19:57.051Z,4.70
2023-02-25T15:22:29.601Z,4.70
2023-02-25T15:25:30.172Z,4.70
2023-02-25T15:28:01.648Z,4.80
2023-02-25T15:31:08.229Z,4.80
2023-02-25T15:33:39.031Z,4.90
2023-02-25T15:36:40.364Z,4.90
2023-02-25T15:39:11.707Z,4.80
2023-02-25T15:41:46.574Z,4.80
2023-02-25T15:44:35.084Z,4.70
2023-02-25T15:47:27.110Z,4.60
2023-02-25T15:49:58.505Z,4.60
2023-02-25T15:53:07.188Z,4.50
2023-02-25T15:55:43.168Z,4.40
2023-02-25T15:58:44.391Z,4.40
2023-02-25T16:01:29.702Z,4.30
2023-02-25T16:03:58.857Z,4.40
2023-02-25T16:06:34.107Z,4.50
2023-02-25T16:09:08.757Z,4.50
2023-02-25T16:11:41.384Z,4.40
2023-02-25T16:14:24.129Z,4.30
2023-02-25T16:16:57.963Z,4.20
2023-02-25T16:19:30.921Z,4.00
2023-02-25T16:22:02.823Z,4.00
2023-02-25T16:24:32.157Z,3.80
2023-02-25T16:27:05.310Z,3.70
2023-02-25T16:29:49.870Z,3.60
2023-02-25T16:32:29.612Z,3.50
2023-02-25T16:35:03.779Z,3.40
2023-02-25T16:37:40.819Z,3.20
2023-02-25T16:40:16.110Z,3.10
2023-02-25T16:42:47.456Z,3.10
2023-02-25T16:45:26.931Z,3.00
2023-02-25T16:47:58.956Z,2.90
2023-02-25T16:50:29.860Z,2.80
2023-02-25T16:52:58.845Z,2.90
2023-02-25T16:55:34.582Z,2.90
2023-02-25T16:58:07.633Z,2.90
2023-02-25T17:00:37.479Z,2.90
2023-02-25T17:03:12.108Z,2.80
2023-02-25T17:05:40.936Z,2.80
2023-02-25T17:08:18.866Z,2.80
2023-02-25T17:10:51.022Z,2.70
2023-02-25T17:13:26.791Z,2.70
2023-02-25T17:15:56.502Z,2.60
2023-02-25T17:18:30.299Z,2.60
2023-02-25T17:21:04.832Z,2.50
2023-02-25T17:23:39.983Z,2.40
2023-02-25T17:26:20.165Z,2.30
2023-02-25T17:28:53.412Z,2.20
2023-02-25T17:31:26.968Z,2.20
2023-02-25T17:33:58.841Z,2.30
2023-02-25T17:36:29.492Z,2.30
2023-02-25T17:39:01.139Z,2.30
2023-02-25T17:41:30.838Z,2.30
2023-02-25T17:44:01.315Z,2.40
2023-02-25T17:46:36.407Z,2.40
2023-02-25T17:49:18.987Z,2.50
2023-02-25T17:51:48.212Z,2.50
2023-02-25T17:54:18.982Z,2.50
2023-02-25T17:56:56.051Z,2.60
2023-02-25T17:59:38.706Z,2.60
2023-02-25T18:02:29.492Z,2.70
2023-02-25T18:05:21.726Z,2.60
2023-02-25T18:08:25.636Z,2.60
2023-02-25T18:11:06.153Z,2.70
2023-02-25T18:13:38.178Z,2.70
2023-02-25T18:16:42.079Z,2.60
2023-02-25T18:19:27.676Z,2.60
2023-02-25T18:21:57.095Z,2.60
2023-02-25T18:24:31.170Z,2.60
2023-02-25T18:27:09.364Z,2.60
2023-02-25T18:29:38.526Z,2.60
2023-02-25T18:32:08.901Z,2.50
2023-02-25T18:34:37.705Z,2.50
2023-02-25T18:37:06.748Z,2.50
2023-02-25T18:39:35.541Z,2.60
2023-02-25T18:42:05.355Z,2.60
2023-02-25T18:44:34.120Z,2.60
2023-02-25T18:47:02.854Z,2.50
2023-02-25T18:49:33.366Z,2.50
2023-02-25T18:52:02.894Z,2.50
2023-02-25T18:54:31.650Z,2.40
2023-02-25T18:57:00.397Z,2.40
2023-02-25T18:59:29.217Z,2.40
2023-02-25T19:01:58.266Z,2.40
2023-02-25T19:04:27.024Z,2.30
2023-02-25T19:06:57.144Z,2.30
2023-02-25T19:09:25.870Z,2.30
2023-02-25T19:11:54.526Z,2.20
2023-02-25T19:14:23.550Z,2.20
2023-02-25T19:16:52.216Z,2.20
2023-02-25T19:19:20.899Z,2.20
2023-02-25T19:21:49.495Z,2.10
2023-02-25T19:24:19.753Z,2.10
2023-02-25T19:26:48.434Z,2.10
2023-02-25T19:29:17.128Z,2.10
2023-02-25T19:31:46.244Z,2.10
2023-02-25T19:34:14.964Z,2.00
2023-02-25T19:36:43.716Z,2.00
2023-02-25T19:39:12.399Z,1.90
2023-02-25T19:41:42.592Z,1.90
2023-02-25T19:44:11.365Z,1.80
2023-02-25T19:46:39.975Z,1.70
2023-02-25T19:49:09.116Z,1.70
2023-02-25T19:51:37.774Z,1.70
2023-02-25T19:54:06.591Z,1.60
2023-02-25T19:56:35.282Z,1.60
2023-02-25T19:59:06.863Z,1.50
2023-02-25T20:01:35.700Z,1.50
2023-02-25T20:04:04.506Z,1.50
2023-02-25T20:06:33.882Z,1.60
2023-02-25T20:09:03.332Z,1.60
2023-02-25T20:11:32.014Z,1.70
2023-02-25T20:14:01.860Z,1.70
2023-02-25T20:16:34.616Z,1.60
2023-02-25T20:19:03.353Z,1.60
2023-02-25T20:21:32.449Z,1.70
2023-02-25T20:24:02.019Z,1.70
2023-02-25T20:26:32.921Z,1.70
2023-02-25T20:29:02.029Z,1.70
2023-02-25T20:31:32.484Z,1.70
2023-02-25T20:34:05.369Z,1.70
2023-02-25T20:36:41.553Z,1.60
2023-02-25T20:39:29.715Z,1.60
2023-02-25T20:41:58.596Z,1.60
2023-02-25T20:44:27.894Z,1.50
2023-02-25T20:46:58.470Z,1.60
2023-02-25T20:49:27.434Z,1.60
2023-02-25T20:51:56.567Z,1.60
2023-02-25T20:54:25.217Z,1.70
2023-02-25T20:56:53.924Z,1.80
2023-02-25T20:59:22.818Z,1.90
2023-02-25T21:01:51.503Z,1.80
2023-02-25T21:04:21.967Z,1.60
2023-02-25T21:06:50.920Z,1.60
2023-02-25T21:09:19.707Z,1.50
2023-02-25T21:11:48.464Z,1.40
2023-02-25T21:14:17.229Z,1.30
2023-02-25T21:16:46.098Z,1.30
2023-02-25T21:19:14.774Z,1.30
2023-02-25T21:21:45.179Z,1.20
2023-02-25T21:24:15.403Z,1.20
2023-02-25T21:26:44.793Z,1.10
2023-02-25T21:29:14.397Z,1.00
2023-02-25T21:31:44.185Z,1.00
2023-02-25T21:34:15.034Z,1.10
2023-02-25T21:36:45.526Z,1.10
2023-02-25T21:39:14.598Z,1.10
2023-02-25T21:41:44.813Z,1.10
2023-02-25T21:44:13.984Z,1.10
2023-02-25T21:46:42.885Z,1.00
2023-02-25T21:49:11.878Z,1.00
2023-02-25T21:51:41.024Z,1.00
2023-02-25T21:54:12.360Z,1.00
2023-02-25T21:56:42.272Z,1.00
2023-02-25T21:59:11.433Z,1.10
2023-02-25T22:01:41.722Z,1.10
2023-02-25T22:04:11.351Z,1.10
2023-02-25T22:06:39.964Z,1.00
2023-02-25T22:09:08.670Z,1.10
2023-02-25T22:11:39.902Z,1.10
2023-02-25T22:14:10.024Z,1.00
2023-02-25T22:16:39.851Z,1.00
2023-02-25T22:19:08.761Z,0.90
2023-02-25T22:21:37.829Z,0.90
2023-02-25T22:24:07.504Z,0.90
2023-02-25T22:26:38.461Z,0.90
2023-02-25T22:29:09.383Z,0.80
2023-02-25T22:31:38.469Z,0.80
2023-02-25T22:34:08.346Z,0.80
2023-02-25T22:36:36.996Z,0.70
2023-02-25T22:39:06.624Z,0.60
2023-02-25T22:41:35.696Z,0.50
2023-02-25T22:44:06.975Z,0.40
2023-02-25T22:46:37.469Z,0.40
2023-02-25T22:49:07.326Z,0.40
2023-02-25T22:51:40.589Z,0.40
2023-02-25T22:54:09.605Z,0.30
2023-02-25T22:56:39.175Z,0.30
2023-02-25T22:59:10.045Z,0.30
2023-02-25T23:01:39.140Z,0.30
2023-02-25T23:04:09.200Z,0.30
2023-02-25T23:06:43.846Z,0.30
2023-02-25T23:09:13.235Z,0.30
2023-02-25T23:11:43.508Z,0.40
2023-02-25T23:14:14.598Z,0.40
2023-02-25T23:16:45.417Z,0.40
2023-02-25T23:19:17.108Z,0.40
2023-02-25T23:21:46.442Z,0.50
2023-02-25T23:24:19.769Z,0.50
2023-02-25T23:26:50.717Z,0.40
2023-02-25T23:29:21.537Z,0.30
2023-02-25T23:31:51.223Z,0.30
2023-02-25T23:34:23.252Z,0.30
2023-02-25T23:36:52.339Z,0.10
2023-02-25T23:39:21.056Z,0.00
2023-02-25T23:41:49.923Z,-0.10
2023-02-25T23:44:18.790Z,-0.20
2023-02-25T23:46:49.013Z,-0.30
2023-02-25T23:49:18.635Z,-0.40
2023-02-25T23:51:49.483Z,-0.40
2023-02-25T23:54:20.109Z,-0.40
2023-02-25T23:56:49.144Z,-0.40
2023-02-25T23:59:18.649Z,-0.50
